Time;durP1;ratioP1;P1;durP2;ratioP2;P2;SDS_P1;SDS_P2;PMS_P1;PMS_P2;Temp;Humidity;BMP_temperature;BMP_pressure;BME280_temperature;BME280_humidity;BME280_pressure;Samples;Min_cycle;Max_cycle;Signal;HPM_P1;HPM_P2
2021/12/20 00:01:09;;;;;;;20.15;8.27;;;0.80;99.90;;;;;;5084372;28;20492;-60
2021/12/20 00:03:36;;;;;;;22.60;10.40;;;0.90;99.90;;;;;;5075971;28;20097;-60
2021/12/20 00:06:03;;;;;;;;;;;0.80;99.90;;;;;;5093528;28;20119;-61
2021/12/20 00:08:31;;;;;;;29.13;12.45;;;0.70;99.90;;;;;;5093343;28;19920;-60
2021/12/20 00:10:57;;;;;;;24.77;10.82;;;0.70;99.90;;;;;;5092663;28;20095;-60
2021/12/20 00:13:24;;;;;;;30.48;12.80;;;0.70;99.90;;;;;;5093039;28;20040;-61
2021/12/20 00:15:51;;;;;;;40.17;13.80;;;0.60;99.90;;;;;;5092436;28;20040;-60
2021/12/20 00:18:18;;;;;;;26.80;10.35;;;0.60;99.90;;;;;;5093139;28;20051;-60
2021/12/20 00:20:45;;;;;;;36.88;14.30;;;0.50;99.90;;;;;;5085337;28;20045;-61
2021/12/20 00:23:12;;;;;;;38.13;14.75;;;0.40;99.90;;;;;;5073364;28;20123;-61
2021/12/20 00:25:38;;;;;;;34.80;13.95;;;0.50;99.90;;;;;;5073031;28;20044;-60
2021/12/20 00:28:05;;;;;;;26.27;10.60;;;0.50;99.90;;;;;;5073210;28;20090;-60
2021/12/20 00:30:33;;;;;;;30.80;12.48;;;0.50;99.90;;;;;;5073168;28;20481;-61
2021/12/20 00:32:59;;;;;;;;;;;0.50;99.90;;;;;;5073699;28;20044;-60
2021/12/20 00:35:26;;;;;;;29.55;12.60;;;0.50;99.90;;;;;;5072738;28;19943;-61
2021/12/20 00:40:39;;;;;;;33.08;13.07;;;0.50;99.90;;;;;;5072684;28;20052;-61
2021/12/20 00:43:06;;;;;;;30.67;12.07;;;0.60;99.90;;;;;;5080568;28;20653;-61
2021/12/20 00:45:35;;;;;;;28.05;12.60;;;0.60;99.90;;;;;;5091521;28;20660;-61
2021/12/20 00:48:03;;;;;;;27.85;11.35;;;0.60;99.90;;;;;;5082219;28;20044;-61
2021/12/20 00:50:37;;;;;;;31.83;12.70;;;0.60;99.90;;;;;;5072323;28;20042;-61
2021/12/20 00:53:04;;;;;;;34.28;11.55;;;0.60;99.90;;;;;;5072641;28;20161;-61
2021/12/20 00:55:31;;;;;;;24.77;11.68;;;0.60;99.90;;;;;;5071202;28;20040;-61
2021/12/20 00:57:59;;;;;;;24.55;11.73;;;0.60;99.90;;;;;;5072148;28;20488;-60
2021/12/20 01:00:28;;;;;;;;;;;0.60;99.90;;;;;;5073056;28;20049;-61
2021/12/20 01:02:56;;;;;;;26.27;10.60;;;0.60;99.90;;;;;;5072681;28;19970;-61
2021/12/20 01:05:25;;;;;;;30.40;10.70;;;0.60;99.90;;;;;;5072132;28;20044;-60
2021/12/20 01:07:55;;;;;;;23.15;10.27;;;0.60;99.90;;;;;;5072367;28;20131;-61
2021/12/20 01:10:22;;;;;;;24.08;10.38;;;0.60;99.90;;;;;;5072656;28;20044;-61
2021/12/20 01:12:50;;;;;;;28.75;11.27;;;0.70;99.90;;;;;;5072639;28;20115;-61
2021/12/20 01:15:27;;;;;;;25.05;11.45;;;0.70;99.90;;;;;;5071945;28;20560;-61
2021/12/20 01:17:54;;;;;;;24.00;10.97;;;0.70;99.90;;;;;;5072494;28;20569;-61
2021/12/20 01:20:21;;;;;;;19.67;9.02;;;0.70;99.90;;;;;;5072393;28;20072;-60
2021/12/20 01:22:51;;;;;;;27.95;11.15;;;0.70;99.90;;;;;;5072482;28;20056;-61
2021/12/20 01:25:19;;;;;;;27.55;11.02;;;0.70;99.90;;;;;;5071872;28;20120;-61
2021/12/20 01:27:46;;;;;;;26.15;11.25;;;0.70;99.90;;;;;;5072353;28;20443;-60
2021/12/20 01:30:14;;;;;;;;;;;0.70;99.90;;;;;;5072270;28;20488;-61
2021/12/20 01:32:42;;;;;;;26.33;10.57;;;0.70;99.90;;;;;;5071161;28;19920;-60
2021/12/20 01:35:09;;;;;;;27.40;12.15;;;0.80;99.90;;;;;;5071494;28;20052;-60
2021/12/20 01:37:37;;;;;;;26.45;10.98;;;0.80;99.90;;;;;;5072129;28;20428;-61
2021/12/20 01:40:07;;;;;;;29.75;12.20;;;0.80;99.90;;;;;;5072186;28;20079;-61
2021/12/20 01:42:36;;;;;;;28.13;12.55;;;0.80;99.90;;;;;;5071299;28;20045;-61
2021/12/20 01:45:12;;;;;;;35.33;12.55;;;0.70;99.90;;;;;;5071678;28;20123;-61
2021/12/20 01:47:43;;;;;;;30.27;11.63;;;0.60;99.90;;;;;;5071943;28;20052;-60
2021/12/20 01:50:24;;;;;;;29.38;12.90;;;0.70;99.90;;;;;;5072091;28;20453;-61
2021/12/20 01:52:52;;;;;;;29.73;11.57;;;0.60;99.90;;;;;;5071927;28;20063;-61
2021/12/20 01:55:21;;;;;;;32.00;11.90;;;0.60;99.90;;;;;;5071467;28;20140;-60
2021/12/20 01:57:49;;;;;;;27.92;11.98;;;0.50;99.90;;;;;;5071588;28;20036;-61
2021/12/20 02:00:20;;;;;;;28.52;11.93;;;0.50;99.90;;;;;;5071738;28;20488;-60
2021/12/20 02:02:49;;;;;;;29.95;11.38;;;0.50;99.90;;;;;;5071638;28;20135;-61
2021/12/20 02:05:21;;;;;;;31.80;12.73;;;0.50;99.90;;;;;;5071195;28;20079;-61
2021/12/20 02:07:52;;;;;;;30.00;11.98;;;0.50;99.90;;;;;;5071554;28;20040;-60
2021/12/20 02:10:19;;;;;;;27.90;11.57;;;0.50;99.90;;;;;;5071543;28;20083;-61
2021/12/20 02:12:46;;;;;;;29.48;12.27;;;0.50;99.90;;;;;;5071641;28;20072;-61
2021/12/20 02:15:13;;;;;;;;;;;0.60;99.90;;;;;;5071568;28;20102;-61
2021/12/20 02:17:41;;;;;;;29.00;11.85;;;0.60;99.90;;;;;;5071588;28;20113;-61
2021/12/20 02:20:09;;;;;;;32.83;11.63;;;0.70;99.90;;;;;;5071374;28;20040;-60
2021/12/20 02:22:38;;;;;;;30.02;11.85;;;0.70;99.90;;;;;;5071535;28;20123;-61
2021/12/20 02:25:06;;;;;;;27.73;10.93;;;0.60;99.90;;;;;;5071191;28;20098;-61
2021/12/20 02:27:33;;;;;;;25.52;10.30;;;0.60;99.90;;;;;;5071292;28;20046;-61
2021/12/20 02:30:10;;;;;;;28.25;11.95;;;0.70;99.90;;;;;;5071671;28;20102;-60
2021/12/20 02:38:22;;;;;;;30.70;11.57;;;0.70;99.90;;;;;;5071461;28;20051;-62
2021/12/20 02:41:09;;;;;;;30.00;11.23;;;0.80;99.90;;;;;;5071259;28;20056;-61
2021/12/20 02:43:41;;;;;;;29.40;12.13;;;0.80;99.90;;;;;;5071170;28;20040;-60
2021/12/20 02:46:47;;;;;;;26.92;10.88;;;0.80;99.90;;;;;;5070879;28;20098;-60
2021/12/20 02:49:22;;;;;;;28.77;11.82;;;0.80;99.90;;;;;;5071412;28;20033;-62
2021/12/20 02:51:58;;;;;;;26.80;11.75;;;0.70;99.90;;;;;;5071134;28;20047;-63
2021/12/20 02:54:24;;;;;;;30.85;12.10;;;0.80;99.90;;;;;;5071224;28;20123;-63
2021/12/20 02:56:51;;;;;;;27.23;11.38;;;0.80;99.90;;;;;;5070826;28;20048;-63
2021/12/20 02:59:18;;;;;;;28.00;12.45;;;0.80;99.90;;;;;;5071209;28;20390;-62
2021/12/20 03:01:51;;;;;;;30.27;12.38;;;0.80;99.90;;;;;;5071121;28;20068;-63
2021/12/20 03:04:17;;;;;;;29.52;12.00;;;0.80;99.90;;;;;;5070876;28;20480;-62
2021/12/20 03:06:48;;;;;;;24.20;10.35;;;0.80;99.90;;;;;;5069475;28;20169;-62
2021/12/20 03:09:19;;;;;;;25.88;10.43;;;0.80;99.90;;;;;;5071162;28;20075;-63
2021/12/20 03:11:51;;;;;;;28.92;10.93;;;0.70;99.90;;;;;;5071118;28;20033;-62
2021/12/20 03:14:27;;;;;;;25.13;11.32;;;0.70;99.90;;;;;;5071403;28;20044;-63
2021/12/20 03:16:54;;;;;;;25.98;10.50;;;0.70;99.90;;;;;;5074378;28;20048;-60
2021/12/20 03:19:21;;;;;;;28.08;10.93;;;0.70;99.90;;;;;;5074638;28;20068;-62
2021/12/20 03:21:48;;;;;;;21.48;10.30;;;0.70;99.90;;;;;;5074770;28;20048;-63
2021/12/20 03:24:15;;;;;;;23.33;9.70;;;0.80;99.90;;;;;;5074547;28;20041;-63
2021/12/20 03:26:43;;;;;;;25.27;11.02;;;0.80;99.90;;;;;;5074217;28;20044;-61
2021/12/20 03:29:11;;;;;;;26.30;10.48;;;0.80;99.90;;;;;;5074424;28;20404;-63
2021/12/20 03:31:38;;;;;;;23.33;9.70;;;0.90;99.90;;;;;;5074465;28;20447;-63
2021/12/20 03:34:05;;;;;;;27.00;10.43;;;0.80;99.90;;;;;;5074463;28;20044;-60
2021/12/20 03:36:34;;;;;;;29.08;11.93;;;0.80;99.90;;;;;;5074090;28;20535;-60
2021/12/20 03:39:02;;;;;;;25.98;10.73;;;0.90;99.90;;;;;;5074484;28;20424;-60
2021/12/20 03:41:30;;;;;;;29.98;11.95;;;0.80;99.90;;;;;;5074185;28;20078;-61
2021/12/20 03:43:57;;;;;;;26.92;10.55;;;0.90;99.90;;;;;;5074025;28;20691;-60
2021/12/20 03:46:24;;;;;;;24.13;10.52;;;0.90;99.90;;;;;;5073849;28;20048;-60
2021/12/20 03:48:51;;;;;;;24.92;10.40;;;0.90;99.90;;;;;;5074289;28;20086;-61
2021/12/20 03:51:18;;;;;;;22.67;10.05;;;0.90;99.90;;;;;;5074334;28;20072;-63
2021/12/20 03:53:45;;;;;;;23.20;10.52;;;0.80;99.90;;;;;;5073902;28;20044;-60
2021/12/20 03:56:12;;;;;;;24.58;10.52;;;0.80;99.90;;;;;;5073744;28;20080;-60
2021/12/20 03:58:40;;;;;;;26.80;10.80;;;0.80;99.90;;;;;;5074009;28;20098;-60
2021/12/20 04:01:10;;;;;;;26.23;11.30;;;0.80;99.90;;;;;;5074085;28;20572;-61
2021/12/20 04:03:37;;;;;;;28.60;11.05;;;0.70;99.90;;;;;;5073906;28;20459;-61
2021/12/20 04:06:07;;;;;;;27.45;11.07;;;0.80;99.90;;;;;;5073646;28;20447;-60
2021/12/20 04:08:35;;;;;;;27.35;11.23;;;0.80;99.90;;;;;;5073747;28;20040;-61
2021/12/20 04:11:03;;;;;;;29.75;11.80;;;0.80;99.90;;;;;;5073910;28;20489;-60
2021/12/20 04:13:30;;;;;;;28.88;10.73;;;0.80;99.90;;;;;;5073440;28;20102;-62
2021/12/20 04:15:57;;;;;;;;;;;0.90;99.90;;;;;;5073930;28;20484;-61
2021/12/20 04:18:26;;;;;;;26.45;10.85;;;0.80;99.90;;;;;;5073707;28;20049;-63
2021/12/20 04:20:52;;;;;;;25.65;11.02;;;0.90;99.90;;;;;;5073736;28;20558;-60
2021/12/20 04:23:19;;;;;;;23.20;10.13;;;0.80;99.90;;;;;;5073358;28;20452;-62
2021/12/20 04:25:47;;;;;;;25.17;10.57;;;0.90;99.90;;;;;;5072567;28;20068;-62
2021/12/20 04:28:14;;;;;;;24.88;10.65;;;0.80;99.90;;;;;;5073489;28;20036;-62
2021/12/20 04:30:41;;;;;;;23.33;10.35;;;0.80;99.90;;;;;;5073440;28;20513;-63
2021/12/20 04:33:08;;;;;;;29.95;10.88;;;0.80;99.90;;;;;;5073483;28;20041;-62
2021/12/20 04:35:35;;;;;;;22.83;10.40;;;0.80;99.90;;;;;;5072729;28;20059;-63
2021/12/20 04:38:04;;;;;;;24.25;10.98;;;0.80;99.90;;;;;;5073350;28;20044;-63
2021/12/20 04:40:31;;;;;;;27.23;11.32;;;0.80;99.90;;;;;;5073177;28;20044;-62
2021/12/20 04:42:59;;;;;;;29.63;11.30;;;0.80;99.90;;;;;;5073227;28;20394;-60
2021/12/20 04:45:28;;;;;;;29.80;11.55;;;0.80;99.90;;;;;;5072455;28;20045;-63
2021/12/20 04:47:55;;;;;;;28.73;11.18;;;0.90;99.90;;;;;;5073178;28;20072;-62
2021/12/20 04:50:24;;;;;;;27.52;11.13;;;0.80;99.90;;;;;;5071957;28;20047;-62
2021/12/20 04:52:52;;;;;;;27.15;11.63;;;0.80;99.90;;;;;;5072986;28;20052;-62
2021/12/20 04:55:18;;;;;;;26.77;11.32;;;0.80;99.90;;;;;;5072536;28;20481;-62
2021/12/20 04:57:47;;;;;;;24.70;10.80;;;0.70;99.90;;;;;;5072973;28;20049;-62
2021/12/20 05:00:18;;;;;;;27.63;11.13;;;0.80;99.90;;;;;;5072624;28;20102;-62
2021/12/20 05:02:45;;;;;;;34.83;12.95;;;0.80;99.90;;;;;;5072881;28;20062;-62
2021/12/20 05:05:13;;;;;;;30.30;13.60;;;0.70;99.90;;;;;;5072246;28;20550;-62
2021/12/20 05:07:40;;;;;;;;;;;0.70;99.90;;;;;;5073191;28;20044;-62
2021/12/20 05:10:12;;;;;;;33.55;13.73;;;0.80;99.90;;;;;;5072726;28;19920;-62
2021/12/20 05:12:39;;;;;;;34.35;15.60;;;0.70;99.90;;;;;;5072775;28;20041;-62
2021/12/20 05:15:19;;;;;;;32.60;14.80;;;0.80;99.90;;;;;;5112655;22;20097;-60
2021/12/20 05:17:58;;;;;;;29.02;11.75;;;0.70;99.90;;;;;;5112666;28;20507;-60
2021/12/20 05:20:26;;;;;;;30.15;12.95;;;0.70;99.90;;;;;;5113063;28;20044;-60
2021/12/20 05:22:55;;;;;;;34.03;14.25;;;0.80;99.90;;;;;;5112995;28;20100;-60
2021/12/20 05:25:22;;;;;;;33.13;13.32;;;0.70;99.90;;;;;;5096101;28;20044;-60
2021/12/20 05:27:49;;;;;;;34.17;13.20;;;0.70;99.90;;;;;;5092571;28;20042;-60
2021/12/20 05:30:17;;;;;;;39.85;14.52;;;0.80;99.90;;;;;;5092182;28;20044;-60
2021/12/20 05:32:44;;;;;;;37.65;14.82;;;0.80;99.90;;;;;;5092407;28;20040;-61
2021/12/20 05:35:13;;;;;;;33.00;13.63;;;0.80;99.90;;;;;;5086442;28;20044;-60
2021/12/20 05:37:41;;;;;;;29.45;11.32;;;0.80;99.90;;;;;;5071754;28;20070;-61
2021/12/20 05:40:10;;;;;;;33.83;13.70;;;0.80;99.90;;;;;;5072098;28;20044;-61
2021/12/20 05:42:37;;;;;;;27.45;11.73;;;0.80;99.90;;;;;;5091841;28;20093;-62
2021/12/20 05:45:05;;;;;;;31.30;11.68;;;0.80;99.90;;;;;;5091909;28;20076;-61
2021/12/20 05:47:33;;;;;;;29.95;12.05;;;0.80;99.90;;;;;;5092196;28;20044;-60
2021/12/20 05:50:00;;;;;;;31.08;12.85;;;0.80;99.90;;;;;;5092172;28;20032;-62
2021/12/20 05:52:27;;;;;;;32.63;11.73;;;0.80;99.90;;;;;;5091578;28;20442;-61
2021/12/20 05:54:54;;;;;;;29.02;13.05;;;0.90;99.90;;;;;;5091557;28;20078;-61
2021/12/20 05:57:20;;;;;;;32.13;12.80;;;0.80;99.90;;;;;;5088092;28;20834;-60
2021/12/20 05:59:47;;;;;;;31.08;12.45;;;0.80;99.90;;;;;;5091709;28;20488;-60
2021/12/20 06:02:14;;;;;;;31.15;13.77;;;0.80;99.90;;;;;;5091261;28;20434;-62
2021/12/20 06:04:41;;;;;;;33.75;13.63;;;0.80;99.90;;;;;;5088829;28;20097;-61
2021/12/20 06:07:09;;;;;;;33.97;15.35;;;0.80;99.90;;;;;;5091512;28;20063;-61
2021/12/20 06:09:36;;;;;;;37.45;15.82;;;0.70;99.90;;;;;;5091470;28;20502;-61
2021/12/20 06:12:03;;;;;;;31.52;14.18;;;0.80;99.90;;;;;;5090254;28;20040;-60
2021/12/20 06:14:30;;;;;;;34.78;14.10;;;0.80;99.90;;;;;;5091666;28;20047;-60
2021/12/20 06:16:58;;;;;;;34.97;14.50;;;0.80;99.90;;;;;;5091368;28;20090;-61
2021/12/20 06:19:26;;;;;;;31.88;13.82;;;0.80;99.90;;;;;;5091865;28;20122;-61
2021/12/20 06:21:54;;;;;;;38.13;13.18;;;0.80;99.90;;;;;;5091397;28;20036;-61
2021/12/20 06:24:23;;;;;;;33.05;13.07;;;0.80;99.90;;;;;;5091587;28;20480;-61
2021/12/20 06:26:51;;;;;;;33.65;13.02;;;0.70;99.90;;;;;;5090987;28;20044;-61
2021/12/20 06:29:19;;;;;;;30.80;12.32;;;0.60;99.90;;;;;;5091649;28;20093;-60
2021/12/20 06:31:46;;;;;;;33.28;14.18;;;0.60;99.90;;;;;;5090970;28;20097;-60
2021/12/20 06:34:13;;;;;;;;;;;0.50;99.90;;;;;;5091508;28;20044;-61
2021/12/20 06:36:40;;;;;;;31.08;12.20;;;0.50;99.90;;;;;;5090559;28;19969;-63
2021/12/20 06:39:08;;;;;;;34.33;13.60;;;0.60;99.90;;;;;;5087946;28;20052;-61
2021/12/20 06:41:35;;;;;;;31.13;12.95;;;0.60;99.90;;;;;;5091025;28;20044;-61
2021/12/20 06:44:04;;;;;;;34.55;13.48;;;0.60;99.90;;;;;;5091528;28;20068;-60
2021/12/20 06:46:37;;;;;;;32.30;14.07;;;0.60;99.90;;;;;;5090043;28;20039;-63
2021/12/20 06:49:09;;;;;;;27.77;13.18;;;0.70;99.90;;;;;;5093264;28;20072;-60
2021/12/20 06:51:40;;;;;;;31.00;13.02;;;0.70;99.90;;;;;;5094117;28;20040;-63
2021/12/20 06:54:18;;;;;;;31.30;13.27;;;0.80;99.90;;;;;;5095731;28;20408;-61
2021/12/20 06:56:46;;;;;;;36.75;13.52;;;0.80;99.90;;;;;;5095070;28;20044;-62
2021/12/20 06:59:13;;;;;;;32.67;14.13;;;0.80;99.90;;;;;;5095303;28;20089;-61
2021/12/20 07:01:41;;;;;;;32.28;13.63;;;0.80;99.90;;;;;;5094857;28;20105;-63
2021/12/20 07:04:09;;;;;;;31.30;13.55;;;0.70;99.90;;;;;;5095121;28;20550;-60
2021/12/20 07:06:37;;;;;;;37.70;14.90;;;0.70;99.90;;;;;;5094260;28;20094;-62
2021/12/20 07:09:04;;;;;;;32.55;15.13;;;0.70;99.90;;;;;;5094961;28;20040;-63
2021/12/20 07:11:31;;;;;;;40.22;15.63;;;0.70;99.90;;;;;;5094992;28;20044;-63
2021/12/20 07:13:58;;;;;;;34.17;15.50;;;0.70;99.90;;;;;;5094851;28;20058;-60
2021/12/20 07:16:25;;;;;;;35.80;14.57;;;0.80;99.90;;;;;;5094135;28;20044;-60
2021/12/20 07:18:52;;;;;;;32.92;14.38;;;0.70;99.90;;;;;;5095093;28;20569;-60
2021/12/20 07:21:19;;;;;;;35.90;15.10;;;0.70;99.90;;;;;;5094488;28;20047;-60
2021/12/20 07:23:46;;;;;;;36.03;14.82;;;0.80;99.90;;;;;;5095002;28;20052;-61
2021/12/20 07:26:13;;;;;;;34.38;14.88;;;0.80;99.90;;;;;;5094050;28;20377;-63
2021/12/20 07:28:42;;;;;;;32.28;14.55;;;0.90;99.90;;;;;;5094639;28;20400;-63
2021/12/20 07:31:11;;;;;;;34.40;14.32;;;0.90;99.90;;;;;;5076474;28;20411;-63
2021/12/20 07:33:39;;;;;;;29.15;13.65;;;1.00;99.90;;;;;;5094288;28;20051;-63
2021/12/20 07:36:06;;;;;;;32.67;13.80;;;0.90;99.90;;;;;;5094380;28;20044;-63
2021/12/20 07:38:36;;;;;;;33.35;13.52;;;0.90;99.90;;;;;;5093988;28;20040;-63
2021/12/20 07:41:03;;;;;;;29.05;13.82;;;0.80;99.90;;;;;;5094911;28;20406;-63
2021/12/20 07:43:30;;;;;;;;;;;0.90;99.90;;;;;;5094471;28;20040;-60
2021/12/20 07:45:57;;;;;;;37.30;14.13;;;0.90;99.90;;;;;;5093470;28;20027;-63
2021/12/20 07:48:25;;;;;;;34.25;14.75;;;0.90;99.90;;;;;;5094217;28;20492;-63
2021/12/20 07:50:52;;;;;;;34.33;13.50;;;0.90;99.90;;;;;;5094376;28;20067;-62
2021/12/20 07:53:19;;;;;;;34.25;14.10;;;0.90;99.90;;;;;;5093921;28;20036;-63
2021/12/20 07:55:46;;;;;;;32.47;14.10;;;1.00;99.90;;;;;;5093858;28;20055;-63
2021/12/20 07:58:12;;;;;;;31.30;13.82;;;1.00;99.90;;;;;;5093854;28;20097;-63
2021/12/20 08:00:39;;;;;;;25.75;11.55;;;1.00;99.90;;;;;;5093125;28;20466;-63
2021/12/20 08:03:06;;;;;;;33.28;14.27;;;1.00;99.90;;;;;;5094184;28;20052;-63
2021/12/20 08:05:34;;;;;;;39.00;15.63;;;1.00;99.90;;;;;;5093623;28;20063;-63
2021/12/20 08:08:01;;;;;;;41.97;15.93;;;1.10;99.90;;;;;;5093995;28;20082;-62
2021/12/20 08:10:28;;;;;;;33.38;13.75;;;1.10;99.90;;;;;;5094076;28;20040;-60
2021/12/20 08:12:55;;;;;;;31.58;13.63;;;1.10;99.90;;;;;;5093890;28;20043;-63
2021/12/20 08:15:22;;;;;;;29.30;14.25;;;1.10;99.90;;;;;;5093373;28;20052;-60
2021/12/20 08:17:50;;;;;;;31.88;13.48;;;1.20;99.90;;;;;;5094008;28;20496;-60
2021/12/20 08:20:18;;;;;;;32.25;12.77;;;1.20;99.90;;;;;;5093934;28;20117;-63
2021/12/20 08:22:46;;;;;;;31.25;13.05;;;1.20;99.90;;;;;;5093778;28;20036;-63
2021/12/20 08:25:15;;;;;;;34.13;14.48;;;1.30;99.90;;;;;;5093206;28;20157;-60
2021/12/20 08:27:43;;;;;;;33.17;14.75;;;1.30;99.90;;;;;;5093735;28;20714;-60
2021/12/20 08:30:10;;;;;;;39.58;16.33;;;1.30;99.90;;;;;;5093607;28;20040;-60
2021/12/20 08:32:38;;;;;;;34.60;15.57;;;1.20;99.90;;;;;;5093648;28;20106;-60
2021/12/20 08:35:05;;;;;;;;;;;1.20;99.90;;;;;;5093694;28;20106;-60
2021/12/20 08:37:33;;;;;;;23.90;10.57;;;1.30;99.90;;;;;;5093321;28;19920;-62
2021/12/20 08:39:59;;;;;;;35.55;13.35;;;1.20;99.90;;;;;;5093436;28;20051;-62
2021/12/20 08:42:26;;;;;;;31.00;14.18;;;1.30;99.90;;;;;;5093312;28;20043;-60
2021/12/20 08:44:53;;;;;;;31.70;14.10;;;1.30;99.90;;;;;;5093176;28;20044;-61
2021/12/20 08:47:20;;;;;;;34.10;14.45;;;1.40;99.90;;;;;;5092939;28;20055;-63
2021/12/20 08:49:48;;;;;;;29.73;13.45;;;1.30;99.90;;;;;;5093104;28;20461;-60
2021/12/20 08:52:15;;;;;;;;;;;1.30;99.90;;;;;;5093202;28;20530;-60
2021/12/20 08:54:42;;;;;;;31.77;13.05;;;1.40;99.90;;;;;;5092642;28;19924;-63
2021/12/20 08:57:09;;;;;;;;;;;1.50;99.90;;;;;;5093348;28;20056;-60
2021/12/20 08:59:36;;;;;;;34.15;13.77;;;1.50;99.90;;;;;;5092979;28;19947;-60
2021/12/20 09:02:06;;;;;;;33.25;14.05;;;1.50;99.90;;;;;;5093012;28;20488;-61
2021/12/20 09:04:34;;;;;;;28.45;13.20;;;1.60;99.90;;;;;;5093011;28;20466;-60
2021/12/20 09:07:01;;;;;;;;;;;1.60;99.90;;;;;;5093023;28;20147;-60
2021/12/20 09:09:29;;;;;;;33.72;15.00;;;1.60;99.90;;;;;;5092971;28;19920;-60
2021/12/20 09:11:56;;;;;;;36.75;15.50;;;1.60;99.90;;;;;;5092530;28;20040;-63
2021/12/20 09:14:23;;;;;;;34.38;15.80;;;1.70;99.90;;;;;;5092658;28;20040;-60
2021/12/20 09:16:50;;;;;;;25.23;11.35;;;1.70;99.90;;;;;;5092417;28;20109;-60
2021/12/20 09:19:16;;;;;;;28.25;11.38;;;1.80;99.90;;;;;;5093017;28;20051;-63
2021/12/20 09:21:43;;;;;;;34.28;14.80;;;1.80;99.90;;;;;;5092924;28;20067;-62
2021/12/20 09:24:10;;;;;;;29.95;13.57;;;1.90;99.90;;;;;;5092488;28;20052;-60
2021/12/20 09:26:38;;;;;;;32.13;13.65;;;2.00;99.90;;;;;;5092200;28;20079;-60
2021/12/20 09:29:04;;;;;;;28.25;14.13;;;1.90;99.90;;;;;;5092450;28;20658;-60
2021/12/20 09:31:32;;;;;;;31.95;14.40;;;2.00;99.90;;;;;;5092638;28;20036;-63
2021/12/20 09:33:59;;;;;;;30.98;14.15;;;2.00;99.90;;;;;;5092177;28;20506;-63
2021/12/20 09:36:30;;;;;;;30.95;13.88;;;2.00;99.90;;;;;;5092047;28;20381;-63
2021/12/20 09:38:58;;;;;;;31.63;14.18;;;2.10;99.90;;;;;;5092328;28;20105;-60
2021/12/20 09:42:00;;;;;;;33.13;14.98;;;2.10;99.90;;;;;;5092313;28;20054;-60
2021/12/20 09:44:18;;;;;;;33.42;15.63;;;2.00;99.90;;;;;;5092172;28;20052;-60
2021/12/20 09:46:46;;;;;;;33.47;14.65;;;2.10;99.90;;;;;;5091600;28;20047;-60
2021/12/20 09:49:13;;;;;;;30.67;13.82;;;2.30;99.90;;;;;;5092223;28;20554;-60
2021/12/20 09:51:40;;;;;;;22.67;10.65;;;2.30;99.90;;;;;;5092165;28;20040;-63
2021/12/20 09:54:07;;;;;;;33.22;13.90;;;2.40;99.90;;;;;;5092060;28;20074;-63
2021/12/20 09:56:38;;;;;;;32.75;13.82;;;2.40;99.90;;;;;;5091776;28;20059;-62
2021/12/20 09:59:09;;;;;;;31.60;14.00;;;2.50;99.90;;;;;;5091994;28;20450;-62
2021/12/20 10:01:36;;;;;;;28.88;13.68;;;2.50;99.90;;;;;;5091895;28;20048;-63
2021/12/20 10:04:03;;;;;;;31.80;13.73;;;2.60;99.90;;;;;;5091891;28;20124;-60
2021/12/20 10:06:31;;;;;;;35.50;14.23;;;2.60;99.90;;;;;;5091487;28;20503;-63
2021/12/20 10:09:09;;;;;;;26.80;10.63;;;2.60;99.90;;;;;;5091997;28;20115;-63
2021/12/20 10:11:37;;;;;;;29.98;13.85;;;2.70;99.90;;;;;;5091787;28;20101;-60
2021/12/20 10:14:09;;;;;;;31.58;15.48;;;2.70;99.90;;;;;;5091004;28;20062;-60
2021/12/20 10:16:38;;;;;;;33.35;15.25;;;2.80;99.90;;;;;;5091121;28;20036;-63
2021/12/20 10:19:12;;;;;;;32.88;15.25;;;2.80;99.90;;;;;;5091688;28;20050;-63
2021/12/20 10:21:42;;;;;;;31.48;14.00;;;2.80;99.90;;;;;;5090871;28;20032;-64
2021/12/20 10:24:09;;;;;;;31.70;14.15;;;2.90;99.90;;;;;;5090504;28;20047;-61
2021/12/20 10:26:41;;;;;;;26.33;11.75;;;2.90;99.90;;;;;;5090789;28;20031;-61
2021/12/20 10:29:19;;;;;;;34.92;14.63;;;2.90;99.90;;;;;;5091199;28;20120;-61
2021/12/20 10:31:47;;;;;;;34.92;14.93;;;3.00;99.90;;;;;;5091703;28;20113;-63
2021/12/20 10:34:16;;;;;;;33.75;16.50;;;3.10;99.90;;;;;;5091860;28;20036;-61
2021/12/20 10:36:54;;;;;;;31.60;14.55;;;3.20;99.90;;;;;;5090447;28;20073;-63
2021/12/20 10:39:37;;;;;;;33.25;15.05;;;3.20;99.90;;;;;;5091475;28;20043;-61
2021/12/20 10:42:22;;;;;;;39.75;15.57;;;3.20;99.90;;;;;;5091547;28;20055;-60
2021/12/20 10:45:09;;;;;;;29.67;14.95;;;3.30;99.90;;;;;;5091155;28;20071;-63
2021/12/20 10:47:37;;;;;;;31.05;14.65;;;3.30;99.90;;;;;;5091232;28;20200;-64
2021/12/20 10:50:20;;;;;;;20.55;10.48;;;3.40;99.90;;;;;;5091344;28;20040;-60
2021/12/20 10:52:47;;;;;;;28.88;14.07;;;3.50;99.90;;;;;;5091571;28;20078;-63
2021/12/20 10:55:33;;;;;;;30.83;13.68;;;3.50;99.90;;;;;;5090404;28;20585;-60
2021/12/20 10:58:29;;;;;;;31.85;15.05;;;3.60;99.90;;;;;;5091217;28;20044;-62
2021/12/20 11:04:02;;;;;;;28.95;14.23;;;3.50;99.90;;;;;;5091211;28;20040;-62
2021/12/20 11:09:17;;;;;;;26.13;12.15;;;3.50;99.90;;;;;;5091713;28;20115;-62
2021/12/20 11:11:48;;;;;;;25.60;13.13;;;3.50;99.90;;;;;;5091135;28;20044;-62
2021/12/20 11:14:16;;;;;;;25.23;11.90;;;3.50;99.90;;;;;;5108961;22;20043;-61
2021/12/20 11:17:09;;;;;;;23.90;12.15;;;3.50;99.90;;;;;;5110221;28;20097;-59
2021/12/20 11:19:38;;;;;;;29.10;12.70;;;3.50;99.90;;;;;;5103055;28;20093;-61
2021/12/20 11:22:20;;;;;;;28.98;13.82;;;3.50;99.90;;;;;;5091260;28;20040;-62
2021/12/20 11:24:52;;;;;;;30.83;13.23;;;3.50;99.90;;;;;;5091030;28;20048;-62
2021/12/20 11:27:21;;;;;;;38.10;14.00;;;3.50;99.90;;;;;;5090777;28;20078;-62
2021/12/20 11:29:49;;;;;;;32.10;13.70;;;3.60;99.90;;;;;;5094569;28;20032;-62
2021/12/20 11:32:18;;;;;;;30.80;13.38;;;3.60;99.90;;;;;;5111031;28;20065;-62
2021/12/20 11:34:46;;;;;;;30.63;13.90;;;3.50;99.90;;;;;;5110994;28;20050;-62
2021/12/20 11:37:14;;;;;;;;;;;3.60;99.90;;;;;;5114158;28;20088;-62
2021/12/20 11:39:41;;;;;;;28.00;14.32;;;3.60;99.90;;;;;;5114319;28;19927;-62
2021/12/20 11:42:09;;;;;;;;;;;3.60;99.90;;;;;;5114778;28;20035;-62
2021/12/20 11:44:37;;;;;;;28.38;14.05;;;3.70;99.90;;;;;;5114914;28;19972;-62
2021/12/20 11:47:31;;;;;;;31.23;14.93;;;3.70;99.90;;;;;;5113403;28;20040;-61
2021/12/20 11:50:12;;;;;;;29.38;13.88;;;3.80;99.90;;;;;;5113965;28;20044;-61
2021/12/20 11:52:45;;;;;;;29.48;13.07;;;3.80;99.90;;;;;;5114930;28;20487;-59
2021/12/20 11:55:20;;;;;;;29.17;15.23;;;3.80;99.90;;;;;;5113836;28;20056;-61
2021/12/20 11:57:50;;;;;;;26.25;13.23;;;3.80;99.90;;;;;;5114430;28;20043;-60
2021/12/20 12:00:33;;;;;;;35.33;13.18;;;3.80;99.90;;;;;;5112626;28;20055;-61
2021/12/20 12:03:15;;;;;;;25.92;12.63;;;3.70;99.90;;;;;;5112708;28;20052;-61
2021/12/20 12:06:01;;;;;;;30.80;13.05;;;3.80;99.90;;;;;;5112685;28;20050;-61
2021/12/20 12:08:52;;;;;;;29.50;13.00;;;3.90;99.90;;;;;;5113254;28;20048;-61
2021/12/20 12:11:29;;;;;;;23.58;11.52;;;4.00;99.90;;;;;;5113554;28;20035;-61
2021/12/20 12:14:01;;;;;;;25.30;12.15;;;4.00;99.90;;;;;;5113856;28;20077;-61
2021/12/20 12:16:51;;;;;;;24.20;11.90;;;4.10;99.90;;;;;;5114304;28;20048;-61
2021/12/20 12:19:44;;;;;;;27.73;12.07;;;4.10;99.90;;;;;;5114260;28;20089;-61
2021/12/20 12:22:27;;;;;;;23.08;11.35;;;4.20;99.90;;;;;;5114064;28;20104;-62
2021/12/20 12:24:55;;;;;;;19.10;10.50;;;4.20;99.90;;;;;;5113952;28;20044;-59
2021/12/20 12:27:30;;;;;;;22.95;11.30;;;4.20;99.90;;;;;;5113586;28;20084;-61
2021/12/20 12:30:12;;;;;;;20.92;10.07;;;4.30;99.90;;;;;;5114103;28;20043;-62
2021/12/20 12:32:48;;;;;;;26.05;11.05;;;4.30;99.90;;;;;;5114070;28;20190;-61
2021/12/20 12:35:38;;;;;;;22.35;10.70;;;4.40;99.90;;;;;;5113457;28;20039;-61
2021/12/20 12:38:10;;;;;;;27.25;11.20;;;4.30;99.90;;;;;;5113896;28;20512;-61
2021/12/20 12:40:38;;;;;;;24.10;11.13;;;4.30;99.90;;;;;;5114034;28;20058;-61
2021/12/20 12:43:04;;;;;;;23.08;10.73;;;4.30;99.90;;;;;;5113857;28;20047;-62
2021/12/20 12:45:51;;;;;;;22.30;11.10;;;4.30;99.90;;;;;;5113052;28;20047;-61
2021/12/20 12:48:41;;;;;;;23.42;10.70;;;4.30;99.90;;;;;;5113581;28;20035;-61
2021/12/20 12:51:20;;;;;;;22.98;10.50;;;4.30;99.90;;;;;;5113576;28;20043;-61
2021/12/20 12:53:49;;;;;;;22.02;10.45;;;4.30;99.90;;;;;;5113602;28;20044;-61
2021/12/20 12:56:28;;;;;;;20.50;10.25;;;4.20;99.90;;;;;;5113063;28;20048;-62
2021/12/20 12:59:14;;;;;;;22.13;10.30;;;4.20;99.90;;;;;;5113314;28;20118;-61
2021/12/20 13:01:48;;;;;;;26.00;10.85;;;4.30;99.90;;;;;;5113359;28;20058;-61
2021/12/20 13:04:15;;;;;;;19.27;10.07;;;4.30;99.90;;;;;;5113215;28;20043;-61
2021/12/20 13:06:43;;;;;;;20.38;10.63;;;4.40;99.90;;;;;;5112751;28;20040;-61
2021/12/20 13:09:10;;;;;;;27.35;10.88;;;4.30;99.90;;;;;;5113310;28;20044;-61